Time;durP1;ratioP1;P1;durP2;ratioP2;P2;SDS_P1;SDS_P2;PMS_P1;PMS_P2;Temp;Humidity;BMP_temperature;BMP_pressure;BME280_temperature;BME280_humidity;BME280_pressure;Samples;Min_cycle;Max_cycle;Signal;HPM_P1;HPM_P2
2021/09/15 00:00:15;;;;;;;34.47;26.00;;;18.00;99.90;;;;;;5014445;28;20386;-76
2021/09/15 00:02:41;;;;;;;35.85;28.00;;;18.00;99.90;;;;;;5013622;28;20553;-76
2021/09/15 00:05:08;;;;;;;37.30;28.63;;;18.00;99.90;;;;;;5014365;28;20026;-77
2021/09/15 00:07:34;;;;;;;33.83;26.70;;;18.00;99.90;;;;;;5014135;28;20081;-77
2021/09/15 00:10:00;;;;;;;44.80;28.15;;;18.00;99.90;;;;;;5013858;28;20080;-76
2021/09/15 00:12:25;;;;;;;39.28;27.98;;;17.90;99.90;;;;;;5014273;28;20030;-75
2021/09/15 00:14:51;;;;;;;37.97;28.67;;;17.90;99.90;;;;;;5014465;28;20068;-75
2021/09/15 00:17:17;;;;;;;40.40;28.67;;;17.90;99.90;;;;;;5013776;28;20026;-78
2021/09/15 00:19:43;;;;;;;37.88;28.55;;;17.90;99.90;;;;;;5014297;28;20475;-76
2021/09/15 00:22:08;;;;;;;44.47;29.80;;;17.90;99.90;;;;;;5013996;28;20034;-76
2021/09/15 00:24:34;;;;;;;36.22;29.00;;;17.80;99.90;;;;;;5015778;28;20117;-76
2021/09/15 00:26:59;;;;;;;35.58;28.08;;;17.80;99.90;;;;;;5016680;28;20030;-75
2021/09/15 00:29:25;;;;;;;49.95;31.65;;;17.80;99.90;;;;;;5014272;28;20040;-76
2021/09/15 00:31:50;;;;;;;35.28;28.17;;;17.80;99.90;;;;;;5013657;28;20025;-76
2021/09/15 00:34:16;;;;;;;38.83;30.00;;;17.80;99.90;;;;;;5014075;28;20022;-76
2021/09/15 00:36:42;;;;;;;43.38;32.17;;;17.80;99.90;;;;;;5014024;28;20022;-75
2021/09/15 00:39:07;;;;;;;40.25;30.67;;;17.80;99.90;;;;;;5015297;28;20030;-76
2021/09/15 00:41:33;;;;;;;39.17;30.00;;;17.80;99.90;;;;;;5014507;28;20093;-76
2021/09/15 00:44:00;;;;;;;40.28;30.17;;;17.80;99.90;;;;;;5013815;28;20092;-75
2021/09/15 00:46:26;;;;;;;44.72;30.52;;;17.80;99.90;;;;;;5014048;28;20512;-77
2021/09/15 00:48:52;;;;;;;38.75;29.63;;;17.80;99.90;;;;;;5014133;28;20032;-77
2021/09/15 00:51:18;;;;;;;39.90;29.23;;;17.80;99.90;;;;;;5015373;28;20456;-77
2021/09/15 00:53:44;;;;;;;37.83;29.63;;;17.70;99.90;;;;;;5017999;28;20046;-76
2021/09/15 00:56:10;;;;;;;34.15;27.88;;;17.80;99.90;;;;;;5017756;28;20033;-76
2021/09/15 00:58:35;;;;;;;40.42;31.23;;;17.70;99.90;;;;;;5016824;28;20022;-76
2021/09/15 01:01:01;;;;;;;36.85;29.50;;;17.80;99.90;;;;;;5017431;28;20061;-76
2021/09/15 01:03:26;;;;;;;38.75;28.88;;;17.70;99.90;;;;;;5017387;28;20420;-77
2021/09/15 01:05:52;;;;;;;38.67;29.35;;;17.70;99.90;;;;;;5016485;28;20053;-77
2021/09/15 01:08:18;;;;;;;37.35;29.80;;;17.70;99.90;;;;;;5017481;28;20034;-77
2021/09/15 01:10:44;;;;;;;36.15;28.27;;;17.70;99.90;;;;;;5017376;28;20022;-77
2021/09/15 01:13:11;;;;;;;35.58;28.10;;;17.70;99.90;;;;;;5016793;28;20126;-77
2021/09/15 01:15:36;;;;;;;35.92;28.48;;;17.70;99.90;;;;;;5017392;28;20029;-77
2021/09/15 01:18:20;;;;;;;40.78;30.42;;;17.60;99.90;;;;;;5016924;28;20409;-76
2021/09/15 01:20:46;;;;;;;36.40;28.48;;;17.60;99.90;;;;;;5016245;28;20390;-76
2021/09/15 01:23:13;;;;;;;35.83;27.13;;;17.60;99.90;;;;;;5017164;28;20026;-75
2021/09/15 01:25:39;;;;;;;40.65;29.65;;;17.60;99.90;;;;;;5017002;28;20382;-75
2021/09/15 01:28:05;;;;;;;38.13;30.08;;;17.50;99.90;;;;;;5016455;28;20029;-75
2021/09/15 01:30:31;;;;;;;41.17;28.88;;;17.50;99.90;;;;;;5016900;28;20045;-76
2021/09/15 01:32:56;;;;;;;35.92;28.38;;;17.60;99.90;;;;;;5016841;28;20026;-76
2021/09/15 01:35:22;;;;;;;38.78;28.77;;;17.50;99.90;;;;;;5018145;28;20152;-76
2021/09/15 01:37:48;;;;;;;40.53;29.75;;;17.50;99.90;;;;;;5018560;28;20026;-76
2021/09/15 01:40:13;;;;;;;44.10;30.20;;;17.50;99.90;;;;;;5018062;28;20033;-76
2021/09/15 01:42:39;;;;;;;44.83;32.33;;;17.50;99.90;;;;;;5016918;28;20042;-76
2021/09/15 01:45:08;;;;;;;40.80;30.58;;;17.50;99.90;;;;;;5016907;28;20030;-75
2021/09/15 01:47:33;;;;;;;49.80;33.40;;;17.50;99.90;;;;;;5015830;28;20025;-75
2021/09/15 01:49:59;;;;;;;46.47;31.83;;;17.50;99.90;;;;;;5015200;28;20029;-76
2021/09/15 01:52:25;;;;;;;42.63;31.23;;;17.50;99.90;;;;;;5018178;28;20033;-76
2021/09/15 01:54:50;;;;;;;42.90;31.45;;;17.50;99.90;;;;;;5016037;28;20050;-75
2021/09/15 01:57:16;;;;;;;43.10;31.73;;;17.50;99.90;;;;;;5016572;28;20370;-75
2021/09/15 01:59:42;;;;;;;41.85;30.08;;;17.50;99.90;;;;;;5016369;28;20082;-75
2021/09/15 02:02:11;;;;;;;37.97;30.25;;;17.50;99.90;;;;;;5014340;28;20100;-75
2021/09/15 02:04:37;;;;;;;40.85;30.55;;;17.50;99.90;;;;;;5016363;28;20064;-75
2021/09/15 02:07:03;;;;;;;38.90;29.00;;;17.50;99.90;;;;;;5016350;28;20055;-76
2021/09/15 02:09:29;;;;;;;39.08;29.05;;;17.50;99.90;;;;;;5015725;28;20056;-77
2021/09/15 02:11:54;;;;;;;46.35;31.73;;;17.40;99.90;;;;;;5016274;28;20052;-76
2021/09/15 02:14:20;;;;;;;41.72;29.73;;;17.40;99.90;;;;;;5016051;28;20528;-76
2021/09/15 02:16:46;;;;;;;42.05;30.45;;;17.40;99.90;;;;;;5015341;28;20060;-76
2021/09/15 02:19:12;;;;;;;38.03;29.08;;;17.40;99.90;;;;;;5016258;28;20018;-76
2021/09/15 02:21:38;;;;;;;36.78;28.05;;;17.40;99.90;;;;;;5016025;28;20088;-76
2021/09/15 02:24:04;;;;;;;43.42;28.33;;;17.30;99.90;;;;;;5015370;28;20101;-76
2021/09/15 02:26:32;;;;;;;47.65;29.13;;;17.30;99.90;;;;;;5015713;28;20041;-76
2021/09/15 02:28:59;;;;;;;52.58;30.05;;;17.30;99.90;;;;;;5015621;28;20033;-76
2021/09/15 02:31:24;;;;;;;41.95;27.83;;;17.30;99.90;;;;;;5015284;28;20041;-74
2021/09/15 02:33:53;;;;;;;38.90;28.52;;;18.00;99.90;;;;;;5016562;28;20029;-77
2021/09/15 02:36:19;;;;;;;79.72;30.50;;;17.20;99.90;;;;;;5014842;28;20477;-77
2021/09/15 02:38:44;;;;;;;49.08;28.23;;;17.20;99.90;;;;;;5015821;28;20093;-75
2021/09/15 02:41:10;;;;;;;44.00;28.27;;;17.20;99.90;;;;;;5015608;28;20030;-75
2021/09/15 02:43:36;;;;;;;40.42;27.65;;;17.20;99.90;;;;;;5015557;28;20397;-76
2021/09/15 02:46:02;;;;;;;41.58;28.40;;;17.10;99.90;;;;;;5016235;28;20413;-76
2021/09/15 02:48:28;;;;;;;40.05;26.08;;;17.10;99.90;;;;;;5016609;28;20041;-75
2021/09/15 02:50:54;;;;;;;41.40;26.10;;;17.10;99.90;;;;;;5014819;28;20044;-76
2021/09/15 02:53:19;;;;;;;36.53;24.23;;;17.10;99.90;;;;;;5015401;28;20048;-76
2021/09/15 02:55:45;;;;;;;32.80;24.80;;;17.00;99.90;;;;;;5015230;28;20026;-77
2021/09/15 02:58:10;;;;;;;45.15;24.80;;;17.00;99.90;;;;;;5014526;28;20105;-76
2021/09/15 03:00:39;;;;;;;50.70;25.42;;;17.00;99.90;;;;;;5015069;28;20026;-77
2021/09/15 03:03:05;;;;;;;33.03;24.63;;;17.00;99.90;;;;;;5015463;28;20075;-76
2021/09/15 03:05:31;;;;;;;31.40;24.42;;;17.00;99.90;;;;;;5014586;28;20378;-76
2021/09/15 03:07:58;;;;;;;33.28;25.65;;;17.00;99.90;;;;;;5015165;28;20030;-76
2021/09/15 03:10:24;;;;;;;35.08;25.58;;;17.00;99.90;;;;;;5015155;28;20026;-76
2021/09/15 03:12:50;;;;;;;46.22;26.30;;;17.00;99.90;;;;;;5014909;28;20022;-76
2021/09/15 03:15:15;;;;;;;38.00;25.48;;;17.00;99.90;;;;;;5015316;28;20034;-77
2021/09/15 03:17:41;;;;;;;41.65;24.98;;;18.10;99.90;;;;;;5015518;28;20436;-77
2021/09/15 03:20:07;;;;;;;43.70;26.75;;;17.10;99.90;;;;;;5014303;28;20089;-74
2021/09/15 03:22:32;;;;;;;38.25;26.50;;;17.00;99.90;;;;;;5014782;28;20037;-75
2021/09/15 03:24:58;;;;;;;63.42;27.00;;;17.10;99.90;;;;;;5014644;28;20113;-75
2021/09/15 03:27:24;;;;;;;60.60;24.83;;;17.10;99.90;;;;;;5014021;28;20034;-75
2021/09/15 03:29:49;;;;;;;38.65;24.90;;;17.10;99.90;;;;;;5014962;28;20462;-76
2021/09/15 03:32:15;;;;;;;49.30;24.67;;;17.10;99.90;;;;;;5014903;28;20510;-76
2021/09/15 03:34:40;;;;;;;41.25;26.17;;;17.10;99.90;;;;;;5014008;28;20421;-75
2021/09/15 03:37:06;;;;;;;53.60;26.27;;;17.20;99.90;;;;;;5014734;28;20053;-75
2021/09/15 03:39:31;;;;;;;33.15;25.00;;;17.20;99.90;;;;;;5013391;28;20379;-75
2021/09/15 03:41:57;;;;;;;38.00;26.25;;;17.20;99.90;;;;;;5012702;28;20222;-73
2021/09/15 03:44:23;;;;;;;40.22;26.05;;;17.20;99.90;;;;;;5013362;28;20517;-75
2021/09/15 03:46:48;;;;;;;39.42;26.85;;;17.20;99.90;;;;;;5012774;28;20049;-74
2021/09/15 03:49:14;;;;;;;42.85;27.60;;;17.30;99.90;;;;;;5013399;28;20581;-75
2021/09/15 03:51:39;;;;;;;34.38;25.55;;;17.30;99.90;;;;;;5013357;28;20065;-76
2021/09/15 03:54:05;;;;;;;36.63;26.73;;;17.30;99.90;;;;;;5012525;28;20061;-76
2021/09/15 03:56:31;;;;;;;33.65;26.88;;;17.30;99.90;;;;;;5013196;28;20535;-76
2021/09/15 03:58:56;;;;;;;37.67;27.33;;;17.40;99.90;;;;;;5013264;28;20375;-74
2021/09/15 04:01:22;;;;;;;31.95;27.63;;;17.40;99.90;;;;;;5012453;28;20046;-76
2021/09/15 04:03:47;;;;;;;40.00;28.65;;;17.40;99.90;;;;;;5013338;28;20169;-78
2021/09/15 04:06:13;;;;;;;38.00;24.70;;;17.40;99.90;;;;;;5013180;28;20459;-77
2021/09/15 04:08:38;;;;;;;34.05;23.75;;;17.40;99.90;;;;;;5012582;28;20029;-76
2021/09/15 04:11:04;;;;;;;33.30;23.50;;;17.40;99.90;;;;;;5013035;28;20022;-76
2021/09/15 04:13:29;;;;;;;33.10;24.17;;;17.40;99.90;;;;;;5013332;28;20022;-76
2021/09/15 04:15:55;;;;;;;26.33;23.23;;;17.40;99.90;;;;;;5012571;28;20026;-77
2021/09/15 04:18:27;;;;;;;31.17;24.10;;;17.40;99.90;;;;;;5015506;28;20022;-76
2021/09/15 04:20:53;;;;;;;42.78;26.27;;;17.40;99.90;;;;;;5014506;28;20041;-77
2021/09/15 04:23:26;;;;;;;30.70;25.00;;;17.40;99.90;;;;;;5012512;28;20025;-76
2021/09/15 04:31:24;;;;;;;33.75;26.33;;;17.30;99.90;;;;;;5017059;28;20033;-77
2021/09/15 04:33:51;;;;;;;31.88;23.67;;;17.40;99.90;;;;;;5017066;28;20033;-76
2021/09/15 04:36:17;;;;;;;38.47;27.13;;;17.40;99.90;;;;;;5016006;28;20478;-77
2021/09/15 04:38:43;;;;;;;37.85;26.52;;;17.40;99.90;;;;;;5017049;28;20037;-77
2021/09/15 04:41:09;;;;;;;34.25;26.90;;;17.40;99.90;;;;;;5016762;28;20034;-77
2021/09/15 04:43:34;;;;;;;36.17;27.83;;;17.40;99.90;;;;;;5016079;28;20037;-77
2021/09/15 04:46:00;;;;;;;36.50;25.27;;;17.40;99.90;;;;;;5016755;28;20437;-77
2021/09/15 04:48:25;;;;;;;32.33;26.05;;;17.50;99.90;;;;;;5016712;28;20113;-76
2021/09/15 04:50:51;;;;;;;39.28;27.42;;;17.50;99.90;;;;;;5016061;28;20117;-77
2021/09/15 04:53:17;;;;;;;33.85;26.42;;;17.40;99.90;;;;;;5016754;28;20028;-76
2021/09/15 04:55:42;;;;;;;40.03;28.88;;;17.40;99.90;;;;;;5016977;28;20030;-77
2021/09/15 04:58:08;;;;;;;38.20;29.20;;;17.50;99.90;;;;;;5016239;28;20057;-76
2021/09/15 05:00:34;;;;;;;41.95;29.45;;;17.50;99.90;;;;;;5017124;28;20429;-76
2021/09/15 05:02:59;;;;;;;42.42;30.42;;;17.50;99.90;;;;;;5016908;28;20025;-77
2021/09/15 05:05:25;;;;;;;36.95;29.17;;;17.40;99.90;;;;;;5015635;28;20022;-76
2021/09/15 05:07:51;;;;;;;44.75;29.02;;;17.40;99.90;;;;;;5016406;28;20477;-76
2021/09/15 05:10:16;;;;;;;31.98;25.92;;;17.40;99.90;;;;;;5016333;28;20026;-76
2021/09/15 05:12:42;;;;;;;35.67;26.75;;;17.40;99.90;;;;;;5014402;28;20390;-76
2021/09/15 05:15:09;;;;;;;33.47;26.35;;;17.40;99.90;;;;;;5016951;28;20474;-77
2021/09/15 05:17:34;;;;;;;39.08;25.60;;;17.30;99.90;;;;;;5016186;28;20034;-77
2021/09/15 05:20:00;;;;;;;36.88;24.52;;;17.30;99.90;;;;;;5015147;28;20125;-77
2021/09/15 05:22:26;;;;;;;34.90;25.20;;;17.30;99.90;;;;;;5016080;28;20038;-76
2021/09/15 05:24:51;;;;;;;35.65;25.33;;;17.30;99.90;;;;;;5016261;28;20048;-76
2021/09/15 05:27:17;;;;;;;73.22;27.90;;;17.30;99.90;;;;;;5015297;28;20026;-77
2021/09/15 05:29:45;;;;;;;36.97;25.90;;;17.60;99.90;;;;;;5015882;28;20522;-74
2021/09/15 05:32:11;;;;;;;58.53;28.40;;;17.30;99.90;;;;;;5015278;28;20034;-74
2021/09/15 05:34:37;;;;;;;56.60;27.20;;;17.20;99.90;;;;;;5015982;28;20080;-77
2021/09/15 05:37:03;;;;;;;44.55;28.27;;;17.20;99.90;;;;;;5017040;28;20030;-75
2021/09/15 05:39:28;;;;;;;43.90;28.95;;;17.20;99.90;;;;;;5015294;28;20037;-75
2021/09/15 05:41:57;;;;;;;39.58;27.42;;;17.20;99.90;;;;;;5015868;28;20109;-75
2021/09/15 05:44:22;;;;;;;37.45;26.77;;;17.20;99.90;;;;;;5015849;28;20032;-75
2021/09/15 05:46:48;;;;;;;39.50;28.70;;;17.20;99.90;;;;;;5015123;28;20030;-75
2021/09/15 05:49:14;;;;;;;45.00;28.95;;;17.20;99.90;;;;;;5016391;28;20386;-75
2021/09/15 05:51:39;;;;;;;40.60;29.60;;;17.10;99.90;;;;;;5016716;28;20443;-76
2021/09/15 05:54:05;;;;;;;41.70;30.23;;;17.10;99.90;;;;;;5014643;28;20128;-75
2021/09/15 05:56:31;;;;;;;49.60;32.65;;;17.20;99.90;;;;;;5015520;28;20069;-77
2021/09/15 05:58:57;;;;;;;118.60;32.72;;;17.20;99.90;;;;;;5015495;28;20038;-76
2021/09/15 06:01:23;;;;;;;45.55;32.45;;;17.20;99.90;;;;;;5014624;28;20109;-75
2021/09/15 06:03:48;;;;;;;46.40;31.08;;;17.20;99.90;;;;;;5015268;28;20072;-76
2021/09/15 06:06:14;;;;;;;37.72;28.42;;;17.20;99.90;;;;;;5015437;28;20141;-75
2021/09/15 06:08:39;;;;;;;46.83;31.85;;;17.20;99.90;;;;;;5015102;28;20101;-76
2021/09/15 06:11:05;;;;;;;50.15;32.42;;;17.20;99.90;;;;;;5015227;28;20046;-75
2021/09/15 06:13:30;;;;;;;45.65;30.83;;;17.20;99.90;;;;;;5015240;28;20037;-75
2021/09/15 06:15:56;;;;;;;50.58;32.78;;;17.20;99.90;;;;;;5014556;28;20026;-77
2021/09/15 06:18:21;;;;;;;60.53;36.22;;;17.20;99.90;;;;;;5015220;28;20370;-76
2021/09/15 06:20:47;;;;;;;60.58;37.78;;;17.20;99.90;;;;;;5015402;28;20030;-76
2021/09/15 06:23:13;;;;;;;60.80;38.20;;;17.30;99.90;;;;;;5014375;28;20033;-77
2021/09/15 06:25:41;;;;;;;66.95;41.75;;;17.30;99.90;;;;;;5015009;28;20079;-77
2021/09/15 06:28:07;;;;;;;71.53;40.88;;;17.40;99.90;;;;;;5014940;28;20030;-77
2021/09/15 06:30:34;;;;;;;66.20;41.40;;;17.50;99.90;;;;;;5014174;28;20101;-76
2021/09/15 06:33:00;;;;;;;75.38;42.03;;;17.50;99.90;;;;;;5014644;28;20030;-76
2021/09/15 06:35:26;;;;;;;75.38;44.88;;;17.60;99.90;;;;;;5014139;28;20466;-77
2021/09/15 06:37:51;;;;;;;71.97;45.33;;;17.60;99.90;;;;;;5014793;28;20026;-76
2021/09/15 06:40:17;;;;;;;76.75;46.50;;;17.70;99.90;;;;;;5014676;28;20457;-76
2021/09/15 06:42:42;;;;;;;75.13;44.47;;;17.70;99.90;;;;;;5013839;28;20034;-77
2021/09/15 06:45:08;;;;;;;67.55;42.10;;;17.70;99.90;;;;;;5014513;28;20026;-77
2021/09/15 06:47:42;;;;;;;68.30;42.35;;;17.80;99.90;;;;;;5014394;28;20109;-77
2021/09/15 06:50:09;;;;;;;71.82;42.65;;;17.80;99.90;;;;;;5013630;28;20072;-77
2021/09/15 06:52:35;;;;;;;73.72;43.33;;;17.90;99.90;;;;;;5014473;28;20124;-77
2021/09/15 06:55:01;;;;;;;78.50;45.17;;;17.90;99.90;;;;;;5014630;28;20042;-76
2021/09/15 06:57:26;;;;;;;72.53;43.67;;;17.90;99.90;;;;;;5013715;28;20104;-77
2021/09/15 06:59:52;;;;;;;69.65;44.05;;;17.90;99.90;;;;;;5015734;28;20029;-75
2021/09/15 07:02:17;;;;;;;73.13;43.10;;;17.90;99.90;;;;;;5014255;28;20036;-76
2021/09/15 07:04:43;;;;;;;64.82;41.28;;;17.90;99.90;;;;;;5013640;28;20022;-75
2021/09/15 07:07:08;;;;;;;66.40;41.83;;;17.90;99.90;;;;;;5014304;28;20026;-76
2021/09/15 07:09:34;;;;;;;65.68;40.88;;;17.90;99.90;;;;;;5014383;28;20026;-76
2021/09/15 07:12:00;;;;;;;60.50;39.65;;;17.90;99.90;;;;;;5013236;28;20501;-75
2021/09/15 07:14:25;;;;;;;70.47;39.53;;;17.90;99.90;;;;;;5014128;28;20022;-75
2021/09/15 07:16:51;;;;;;;66.95;41.33;;;17.80;99.90;;;;;;5014020;28;20061;-74
2021/09/15 07:19:16;;;;;;;66.40;40.83;;;17.90;99.90;;;;;;5013465;28;20030;-76
2021/09/15 07:21:42;;;;;;;67.32;41.45;;;17.80;99.90;;;;;;5013961;28;20068;-74
2021/09/15 07:24:07;;;;;;;68.53;40.83;;;17.90;99.90;;;;;;5013811;28;20032;-77
2021/09/15 07:26:33;;;;;;;66.90;42.30;;;17.90;99.90;;;;;;5013148;28;20065;-76
2021/09/15 07:28:59;;;;;;;66.30;42.53;;;17.90;99.90;;;;;;5013740;28;20160;-75
2021/09/15 07:31:24;;;;;;;70.40;43.17;;;18.00;99.90;;;;;;5013671;28;20080;-74
2021/09/15 07:33:50;;;;;;;62.97;41.22;;;18.00;99.90;;;;;;5013151;28;20027;-76
2021/09/15 07:36:16;;;;;;;69.80;41.25;;;18.10;99.90;;;;;;5013862;28;20382;-76
2021/09/15 07:38:42;;;;;;;60.97;39.95;;;18.10;99.90;;;;;;5013217;28;20029;-75
2021/09/15 07:41:08;;;;;;;66.50;40.75;;;18.20;99.90;;;;;;5013546;28;20552;-77
2021/09/15 07:43:36;;;;;;;61.38;39.78;;;18.20;99.90;;;;;;5013404;28;20041;-76
2021/09/15 07:46:02;;;;;;;65.70;41.50;;;18.20;99.90;;;;;;5012569;28;20034;-76
2021/09/15 07:48:27;;;;;;;63.13;39.08;;;18.30;99.90;;;;;;5013739;28;20033;-76
2021/09/15 07:50:53;;;;;;;64.63;42.53;;;18.30;99.90;;;;;;5013563;28;20466;-76
2021/09/15 07:53:19;;;;;;;59.75;39.38;;;18.40;99.90;;;;;;5012753;28;20018;-76
2021/09/15 07:55:46;;;;;;;67.05;42.20;;;18.40;99.90;;;;;;5013443;28;20030;-76
2021/09/15 07:58:11;;;;;;;60.22;39.40;;;18.40;99.90;;;;;;5013444;28;20553;-76
2021/09/15 08:00:37;;;;;;;57.53;39.78;;;18.50;99.90;;;;;;5012635;28;20113;-76
2021/09/15 08:03:02;;;;;;;61.00;39.78;;;18.50;99.90;;;;;;5013632;28;20497;-77
2021/09/15 08:05:29;;;;;;;64.47;42.28;;;18.50;99.90;;;;;;5013357;28;20030;-76
2021/09/15 08:07:54;;;;;;;59.55;40.72;;;18.50;99.90;;;;;;5012575;28;20022;-76
2021/09/15 08:10:20;;;;;;;60.22;38.00;;;18.60;99.90;;;;;;5013179;28;20029;-76
2021/09/15 08:12:45;;;;;;;54.55;38.20;;;18.60;99.90;;;;;;5013158;28;20030;-77
2021/09/15 08:15:11;;;;;;;60.10;38.38;;;18.60;99.90;;;;;;5012472;28;20076;-76
2021/09/15 08:17:38;;;;;;;53.95;35.35;;;18.70;99.90;;;;;;5013144;28;20064;-75
2021/09/15 08:20:05;;;;;;;54.00;37.03;;;18.70;99.90;;;;;;5013829;28;20026;-74
2021/09/15 08:22:31;;;;;;;69.32;40.67;;;18.70;99.90;;;;;;5015607;28;20061;-74
2021/09/15 08:24:57;;;;;;;62.08;38.40;;;18.70;99.90;;;;;;5020227;28;20025;-76
2021/09/15 08:27:22;;;;;;;59.47;39.47;;;18.70;99.90;;;;;;5017637;28;20033;-76
2021/09/15 08:29:48;;;;;;;60.78;39.03;;;18.60;99.90;;;;;;5013094;28;20032;-77
2021/09/15 08:32:13;;;;;;;62.85;39.08;;;18.60;99.90;;;;;;5013579;28;20474;-77
2021/09/15 08:34:39;;;;;;;66.80;41.90;;;18.60;99.90;;;;;;5014064;28;20113;-75
2021/09/15 08:37:04;;;;;;;77.95;45.22;;;18.50;99.90;;;;;;5013242;28;20029;-76
2021/09/15 08:39:30;;;;;;;82.18;45.75;;;18.50;99.90;;;;;;5013945;28;20018;-76
2021/09/15 08:41:55;;;;;;;77.50;47.13;;;18.40;99.90;;;;;;5013616;28;20038;-76
2021/09/15 08:44:21;;;;;;;63.78;40.00;;;18.40;99.90;;;;;;5012882;28;20026;-76
2021/09/15 08:46:48;;;;;;;43.22;30.50;;;18.40;99.90;;;;;;5013372;28;20033;-76
2021/09/15 08:49:16;;;;;;;38.63;27.45;;;18.40;99.90;;;;;;5012807;28;20050;-76
2021/09/15 08:51:42;;;;;;;40.40;29.85;;;18.30;99.90;;;;;;5013073;28;20372;-76
2021/09/15 08:54:13;;;;;;;28.40;24.60;;;18.30;99.90;;;;;;5012814;28;20060;-77
2021/09/15 08:56:39;;;;;;;31.08;24.90;;;18.30;99.90;;;;;;5012195;28;20428;-76
2021/09/15 08:59:04;;;;;;;32.72;22.45;;;18.20;99.90;;;;;;5013010;28;20034;-78
2021/09/15 09:01:30;;;;;;;23.63;21.08;;;18.30;99.90;;;;;;5012828;28;20030;-77
2021/09/15 09:03:57;;;;;;;27.23;21.00;;;18.30;99.90;;;;;;5011992;28;20415;-77
2021/09/15 09:06:31;;;;;;;22.27;19.10;;;18.30;99.90;;;;;;5013333;28;20113;-77
2021/09/15 09:09:04;;;;;;;21.25;19.00;;;18.40;99.90;;;;;;5012655;28;20486;-77
2021/09/15 09:11:32;;;;;;;18.38;16.67;;;18.40;99.90;;;;;;5012410;28;20099;-78
2021/09/15 09:14:04;;;;;;;20.58;18.63;;;18.40;99.90;;;;;;5016261;28;20128;-77
2021/09/15 09:16:48;;;;;;;19.67;17.33;;;18.40;99.90;;;;;;5016530;28;20056;-77
2021/09/15 09:19:21;;;;;;;17.95;16.33;;;18.40;99.90;;;;;;5017149;28;20017;-77
2021/09/15 09:21:49;;;;;;;18.23;16.52;;;18.40;99.90;;;;;;5016107;28;20087;-76
2021/09/15 09:24:21;;;;;;;18.58;16.88;;;18.40;99.90;;;;;;5015454;28;20049;-76
2021/09/15 09:26:53;;;;;;;17.48;15.75;;;18.40;99.90;;;;;;5016012;28;20423;-77
2021/09/15 09:29:24;;;;;;;17.63;16.02;;;18.40;99.90;;;;;;5016067;28;20026;-77
2021/09/15 09:32:05;;;;;;;17.65;14.63;;;18.50;99.90;;;;;;5015155;28;20124;-77
2021/09/15 09:34:44;;;;;;;14.15;12.73;;;18.60;99.90;;;;;;5016124;28;20026;-78
2021/09/15 09:37:18;;;;;;;13.80;12.20;;;18.80;99.90;;;;;;5016059;28;20530;-78
2021/09/15 09:39:57;;;;;;;14.07;12.63;;;18.80;99.90;;;;;;5015220;28;20053;-75
2021/09/15 09:42:22;;;;;;;11.57;10.68;;;18.90;99.90;;;;;;5015574;28;20509;-76
2021/09/15 09:44:51;;;;;;;11.55;10.40;;;18.90;99.90;;;;;;5015675;28;20033;-76
2021/09/15 09:47:22;;;;;;;11.88;10.75;;;19.00;99.90;;;;;;5015326;28;20037;-76
2021/09/15 09:50:02;;;;;;;11.93;10.57;;;19.10;99.90;;;;;;5015702;28;20029;-76
2021/09/15 09:52:28;;;;;;;10.57;9.25;;;19.20;99.90;;;;;;5015176;28;20069;-77
2021/09/15 09:55:02;;;;;;;10.73;9.55;;;19.30;99.90;;;;;;5015372;28;20073;-76
2021/09/15 09:57:28;;;;;;;10.68;9.77;;;19.50;99.90;;;;;;5016096;28;20022;-77
2021/09/15 09:59:54;;;;;;;12.27;9.95;;;19.60;99.90;;;;;;5016227;28;20109;-78
2021/09/15 10:02:20;;;;;;;12.38;10.70;;;19.60;99.90;;;;;;5015897;28;20038;-77
2021/09/15 10:04:47;;;;;;;11.57;10.48;;;19.70;99.90;;;;;;5015601;28;20517;-76
2021/09/15 10:07:13;;;;;;;10.95;9.50;;;19.80;99.90;;;;;;5014633;28;20381;-77
2021/09/15 10:09:39;;;;;;;10.05;9.13;;;19.90;99.90;;;;;;5015300;28;20095;-77
2021/09/15 10:12:06;;;;;;;9.32;8.52;;;19.90;99.90;;;;;;5015272;28;20519;-76
2021/09/15 10:14:32;;;;;;;13.60;7.53;;;20.00;99.90;;;;;;5013491;28;20026;-77
2021/09/15 10:17:13;;;;;;;7.18;5.57;;;20.00;99.90;;;;;;5015178;28;20038;-77
2021/09/15 10:19:45;;;;;;;;;;;19.90;99.90;;;;;;5015750;28;20022;-77
2021/09/15 10:22:10;;;;;;;7.10;5.82;;;19.90;99.90;;;;;;5015041;28;20014;-77
2021/09/15 10:24:48;;;;;;;10.77;6.93;;;19.90;99.90;;;;;;5014466;28;20488;-77
2021/09/15 10:27:16;;;;;;;9.13;6.07;;;20.00;99.90;;;;;;5015118;28;20026;-78
2021/09/15 10:29:42;;;;;;;9.68;5.38;;;19.90;99.90;;;;;;5014371;28;20026;-77
2021/09/15 10:32:14;;;;;;;8.88;5.78;;;19.90;99.90;;;;;;5014938;28;20032;-77
2021/09/15 10:34:39;;;;;;;8.77;4.13;;;19.90;99.90;;;;;;5014168;28;20037;-77
2021/09/15 10:37:11;;;;;;;7.18;3.83;;;19.80;99.90;;;;;;5015027;28;20022;-76
2021/09/15 10:39:56;;;;;;;6.20;2.80;;;19.70;99.90;;;;;;5014771;28;20493;-77
2021/09/15 10:42:34;;;;;;;5.13;3.17;;;19.70;99.90;;;;;;5013877;28;20461;-77
2021/09/15 10:45:29;;;;;;;5.18;3.00;;;19.80;99.90;;;;;;5014765;28;20179;-77
2021/09/15 10:48:09;;;;;;;4.40;3.38;;;19.80;99.90;;;;;;5014924;28;20034;-79
2021/09/15 10:50:40;;;;;;;4.97;3.40;;;19.90;99.90;;;;;;5013818;28;20072;-78
2021/09/15 10:53:11;;;;;;;6.85;3.78;;;20.10;99.90;;;;;;5014496;28;20072;-77
2021/09/15 10:55:47;;;;;;;6.03;4.00;;;20.70;99.90;;;;;;5013843;28;20549;-79
2021/09/15 10:58:27;;;;;;;4.38;4.00;;;20.30;99.90;;;;;;5014503;28;20032;-76
2021/09/15 11:00:53;;;;;;;6.18;3.03;;;20.40;99.90;;;;;;5014485;28;20057;-78
2021/09/15 11:03:30;;;;;;;5.25;2.90;;;20.40;99.90;;;;;;5013631;28;20030;-77
2021/09/15 11:06:19;;;;;;;8.38;3.50;;;20.40;99.90;;;;;;5014113;28;20037;-77
2021/09/15 11:08:47;;;;;;;9.65;3.60;;;20.50;99.90;;;;;;5007974;28;20113;-78
2021/09/15 11:11:22;;;;;;;5.93;2.70;;;20.50;99.90;;;;;;5013691;28;20033;-79
2021/09/15 11:14:01;;;;;;;10.00;3.00;;;20.70;99.90;;;;;;5014406;28;20034;-77
2021/09/15 11:16:48;;;;;;;5.43;2.57;;;20.70;99.90;;;;;;5014130;28;20455;-80
2021/09/15 11:19:16;;;;;;;6.80;3.03;;;20.70;99.90;;;;;;5014260;28;20291;-79
2021/09/15 11:21:51;;;;;;;5.47;3.33;;;20.90;99.90;;;;;;5014111;28;20114;-77
2021/09/15 11:24:30;;;;;;;11.63;3.95;;;21.00;99.90;;;;;;5013186;28;20026;-79
2021/09/15 11:26:59;;;;;;;5.75;3.72;;;21.10;99.90;;;;;;5014332;28;20025;-78
2021/09/15 11:29:41;;;;;;;6.63;3.50;;;21.20;99.90;;;;;;5013932;28;20026;-79
2021/09/15 11:32:13;;;;;;;8.00;3.78;;;21.20;99.90;;;;;;5013281;28;20094;-77
2021/09/15 11:34:48;;;;;;;5.13;3.40;;;21.30;99.90;;;;;;5013550;28;20057;-78
2021/09/15 11:37:28;;;;;;;6.60;3.20;;;21.30;99.90;;;;;;5014311;28;20037;-77
2021/09/15 11:40:02;;;;;;;7.55;3.42;;;21.20;99.90;;;;;;5012954;28;20478;-80
2021/09/15 11:42:31;;;;;;;11.07;4.63;;;21.20;99.90;;;;;;5013537;28;20096;-77
2021/09/15 11:45:22;;;;;;;4.93;2.97;;;21.30;99.90;;;;;;5012952;28;20049;-76
2021/09/15 11:47:48;;;;;;;;;;;21.40;99.90;;;;;;5014815;28;20425;-78
2021/09/15 11:50:17;;;;;;;7.55;3.08;;;21.50;99.90;;;;;;5013735;28;19911;-78
2021/09/15 11:52:46;;;;;;;10.65;3.15;;;21.50;99.90;;;;;;5012817;28;20133;-79
2021/09/15 11:55:14;;;;;;;9.50;3.85;;;21.40;99.90;;;;;;5013367;28;20049;-77
2021/09/15 11:57:45;;;;;;;7.07;3.47;;;21.40;99.90;;;;;;5013420;28;20096;-78
2021/09/15 12:00:11;;;;;;;7.55;3.40;;;21.30;99.90;;;;;;5012727;28;20414;-77
2021/09/15 12:02:40;;;;;;;6.20;3.80;;;21.30;99.90;;;;;;5014602;28;20057;-77
2021/09/15 12:05:08;;;;;;;7.72;4.35;;;21.20;99.90;;;;;;5013573;28;20529;-79
2021/09/15 12:07:34;;;;;;;7.35;3.20;;;21.10;99.90;;;;;;5013743;28;20026;-78
2021/09/15 12:10:01;;;;;;;5.78;3.35;;;20.90;99.90;;;;;;5014549;28;20041;-78
2021/09/15 12:12:28;;;;;;;10.77;3.60;;;20.80;99.90;;;;;;5014147;28;20026;-78
2021/09/15 12:15:06;;;;;;;6.93;3.75;;;20.80;99.90;;;;;;5012879;28;20087;-79
2021/09/15 12:17:32;;;;;;;7.88;4.35;;;20.70;99.90;;;;;;5013695;28;20518;-78
2021/09/15 12:19:57;;;;;;;7.40;5.50;;;20.70;99.90;;;;;;5013505;28;20191;-77
2021/09/15 12:22:29;;;;;;;14.98;5.80;;;20.50;99.90;;;;;;5012468;28;20061;-77
2021/09/15 12:25:02;;;;;;;14.85;6.03;;;20.60;99.90;;;;;;5013207;28;20030;-77
2021/09/15 12:27:29;;;;;;;7.72;5.35;;;20.60;99.90;;;;;;5012745;28;20026;-77
2021/09/15 12:30:01;;;;;;;6.65;5.75;;;20.70;99.90;;;;;;5013288;28;20053;-77
2021/09/15 12:32:31;;;;;;;9.20;5.00;;;20.70;99.90;;;;;;5013315;28;20080;-78
2021/09/15 12:34:57;;;;;;;6.88;4.45;;;20.80;99.90;;;;;;5012553;28;20052;-78
2021/09/15 12:37:23;;;;;;;8.18;4.95;;;20.80;99.90;;;;;;5012924;28;20496;-78